createdAt,value
2019-02-08T00:00:27.110Z,100.00
2019-02-08T00:02:55.745Z,100.00
2019-02-08T00:05:24.445Z,100.00
2019-02-08T00:07:53.124Z,100.00
2019-02-08T00:10:22.392Z,100.00
2019-02-08T00:12:51.030Z,100.00
2019-02-08T00:15:21.593Z,100.00
2019-02-08T00:17:50.220Z,100.00
2019-02-08T00:20:21.784Z,100.00
2019-02-08T00:22:50.474Z,100.00
2019-02-08T00:25:20.556Z,100.00
2019-02-08T00:27:49.244Z,100.00
2019-02-08T00:30:25.755Z,100.00
2019-02-08T00:32:54.643Z,100.00
2019-02-08T00:35:23.664Z,100.00
2019-02-08T00:37:52.450Z,100.00
2019-02-08T00:40:25.153Z,100.00
2019-02-08T00:42:53.834Z,100.00
2019-02-08T00:45:23.741Z,100.00
2019-02-08T00:47:52.480Z,100.00
2019-02-08T00:50:23.306Z,100.00
2019-02-08T00:52:52.137Z,100.00
2019-02-08T00:55:20.765Z,100.00
2019-02-08T00:57:49.846Z,100.00
2019-02-08T01:00:19.495Z,100.00
2019-02-08T01:02:49.940Z,100.00
2019-02-08T01:05:24.245Z,100.00
2019-02-08T01:07:53.002Z,100.00
2019-02-08T01:10:27.047Z,100.00
2019-02-08T01:12:55.706Z,100.00
2019-02-08T01:15:26.136Z,100.00
2019-02-08T01:17:54.828Z,100.00
2019-02-08T01:20:25.094Z,100.00
2019-02-08T01:22:53.805Z,100.00
2019-02-08T01:25:25.143Z,100.00
2019-02-08T01:27:54.054Z,100.00
2019-02-08T01:30:24.931Z,100.00
2019-02-08T01:32:53.815Z,100.00
2019-02-08T01:35:23.238Z,100.00
2019-02-08T01:37:51.954Z,100.00
2019-02-08T01:40:24.849Z,100.00
2019-02-08T01:42:53.510Z,100.00
2019-02-08T01:45:25.186Z,100.00
2019-02-08T01:47:54.156Z,100.00
2019-02-08T01:50:25.195Z,100.00
2019-02-08T01:52:53.988Z,100.00
2019-02-08T01:55:22.666Z,100.00
2019-02-08T01:57:51.978Z,100.00
2019-02-08T02:00:25.793Z,100.00
2019-02-08T02:02:54.431Z,100.00
2019-02-08T02:05:23.129Z,100.00
2019-02-08T02:07:51.807Z,100.00
2019-02-08T02:10:25.314Z,100.00
2019-02-08T02:12:53.998Z,100.00
2019-02-08T02:15:24.314Z,100.00
2019-02-08T02:17:52.992Z,100.00
2019-02-08T02:20:35.938Z,100.00
2019-02-08T02:23:05.563Z,100.00
2019-02-08T02:25:34.526Z,100.00
2019-02-08T02:28:03.477Z,100.00
2019-02-08T02:30:34.211Z,100.00
2019-02-08T02:33:02.926Z,100.00
2019-02-08T02:35:31.688Z,100.00
2019-02-08T02:38:00.769Z,100.00
2019-02-08T02:40:29.381Z,100.00
2019-02-08T02:42:59.718Z,100.00
2019-02-08T02:45:33.917Z,100.00
2019-02-08T02:48:03.021Z,100.00
2019-02-08T02:50:32.149Z,100.00
2019-02-08T02:53:00.833Z,100.00
2019-02-08T02:55:30.796Z,100.00
2019-02-08T02:57:59.479Z,100.00
2019-02-08T03:00:42.992Z,100.00
2019-02-08T03:03:12.381Z,100.00
2019-02-08T03:05:41.316Z,100.00
2019-02-08T03:08:12.411Z,100.00
2019-02-08T03:10:41.332Z,100.00
2019-02-08T03:13:10.200Z,100.00
2019-02-08T03:15:38.897Z,100.00
2019-02-08T03:18:07.502Z,100.00
2019-02-08T03:20:36.307Z,100.00
2019-02-08T03:23:05.462Z,100.00
2019-02-08T03:25:34.142Z,100.00
2019-02-08T03:28:02.944Z,100.00
2019-02-08T03:30:36.873Z,100.00
2019-02-08T03:33:06.023Z,100.00
2019-02-08T03:35:34.924Z,100.00
2019-02-08T03:38:03.578Z,100.00
2019-02-08T03:40:32.758Z,100.00
2019-02-08T03:43:01.491Z,100.00
2019-02-08T03:45:47.047Z,100.00
2019-02-08T03:48:15.654Z,100.00
2019-02-08T03:50:44.351Z,100.00
2019-02-08T03:53:12.975Z,100.00
2019-02-08T03:55:41.660Z,100.00
2019-02-08T03:58:10.946Z,100.00
2019-02-08T04:00:41.527Z,100.00
2019-02-08T04:03:10.175Z,100.00
2019-02-08T04:05:38.847Z,100.00
2019-02-08T04:08:07.483Z,100.00
2019-02-08T04:10:36.191Z,100.00
2019-02-08T04:13:05.175Z,100.00
2019-02-08T04:15:33.792Z,100.00
2019-02-08T04:18:02.479Z,100.00
2019-02-08T04:20:31.157Z,100.00
2019-02-08T04:23:00.132Z,100.00
2019-02-08T04:25:28.754Z,100.00
2019-02-08T04:27:57.436Z,100.00
2019-02-08T04:30:28.674Z,100.00
2019-02-08T04:32:57.907Z,100.00
2019-02-08T04:35:26.693Z,100.00
2019-02-08T04:37:55.372Z,100.00
2019-02-08T04:40:28.273Z,100.00
2019-02-08T04:42:56.945Z,100.00
2019-02-08T04:45:25.602Z,100.00
2019-02-08T04:47:54.383Z,100.00
2019-02-08T04:50:25.138Z,100.00
2019-02-08T04:52:54.044Z,100.00
2019-02-08T04:55:22.729Z,100.00
2019-02-08T04:57:51.400Z,100.00
2019-02-08T05:00:28.378Z,100.00
2019-02-08T05:02:57.159Z,100.00
2019-02-08T05:05:25.771Z,100.00
2019-02-08T05:07:54.455Z,100.00
2019-02-08T05:10:25.742Z,100.00
2019-02-08T05:12:54.543Z,100.00
2019-02-08T05:15:23.386Z,100.00
2019-02-08T05:17:52.007Z,100.00
2019-02-08T05:20:23.570Z,100.00
2019-02-08T05:22:52.215Z,100.00
2019-02-08T05:25:21.205Z,100.00
2019-02-08T05:27:52.345Z,100.00
2019-02-08T05:30:25.983Z,100.00
2019-02-08T05:32:54.680Z,100.00
2019-02-08T05:35:23.397Z,100.00
2019-02-08T05:37:52.098Z,100.00
2019-02-08T05:40:21.930Z,100.00
2019-02-08T05:42:50.608Z,100.00
2019-02-08T05:45:24.686Z,100.00
2019-02-08T05:47:53.299Z,100.00
2019-02-08T05:50:26.852Z,100.00
2019-02-08T05:52:55.791Z,100.00
2019-02-08T05:55:32.371Z,100.00
2019-02-08T05:58:00.996Z,100.00
2019-02-08T06:00:36.458Z,100.00
2019-02-08T06:03:06.268Z,100.00
2019-02-08T06:05:35.139Z,100.00
2019-02-08T06:08:03.912Z,100.00
2019-02-08T06:10:32.587Z,100.00
2019-02-08T06:13:01.387Z,100.00
2019-02-08T06:15:30.077Z,100.00
2019-02-08T06:17:58.687Z,100.00
2019-02-08T06:20:27.677Z,100.00
2019-02-08T06:22:56.462Z,100.00
2019-02-08T06:25:25.300Z,100.00
2019-02-08T06:27:54.040Z,100.00
2019-02-08T06:30:25.060Z,100.00
2019-02-08T06:32:53.790Z,100.00
2019-02-08T06:35:24.202Z,100.00
2019-02-08T06:37:52.984Z,100.00
2019-02-08T06:40:24.658Z,100.00
2019-02-08T06:42:54.070Z,100.00
2019-02-08T06:45:25.321Z,100.00
2019-02-08T06:47:54.264Z,100.00
2019-02-08T06:50:25.772Z,100.00
2019-02-08T06:52:54.836Z,100.00
2019-02-08T06:55:23.845Z,100.00
2019-02-08T06:58:03.257Z,100.00
2019-02-08T07:00:33.567Z,100.00
2019-02-08T07:03:15.808Z,100.00
2019-02-08T07:05:52.781Z,100.00
2019-02-08T07:08:30.628Z,100.00
2019-02-08T07:11:17.421Z,100.00
2019-02-08T07:13:50.453Z,100.00
2019-02-08T07:16:20.644Z,100.00
2019-02-08T07:19:02.751Z,100.00
2019-02-08T07:21:32.947Z,100.00
2019-02-08T07:24:18.479Z,100.00
2019-02-08T07:26:48.726Z,100.00
2019-02-08T07:29:27.789Z,100.00
2019-02-08T07:32:14.343Z,100.00
2019-02-08T07:34:44.574Z,100.00
2019-02-08T07:37:14.897Z,100.00
2019-02-08T07:39:57.187Z,100.00
2019-02-08T07:42:33.456Z,100.00
2019-02-08T07:45:03.846Z,100.00
2019-02-08T07:47:34.105Z,100.00
2019-02-08T07:50:04.299Z,100.00
2019-02-08T07:52:37.543Z,100.00
2019-02-08T07:55:16.524Z,100.00
2019-02-08T07:57:46.796Z,100.00
2019-02-08T08:00:18.867Z,100.00
2019-02-08T08:02:58.096Z,100.00
2019-02-08T08:05:44.583Z,100.00
2019-02-08T08:08:17.790Z,100.00
2019-02-08T08:10:57.238Z,100.00
2019-02-08T08:13:27.433Z,100.00
2019-02-08T08:15:57.720Z,100.00
2019-02-08T08:18:31.488Z,100.00
2019-02-08T08:21:14.556Z,100.00
2019-02-08T08:23:51.600Z,100.00
2019-02-08T08:26:22.187Z,100.00
2019-02-08T08:29:04.541Z,100.00
2019-02-08T08:31:37.847Z,100.00
2019-02-08T08:34:09.572Z,100.00
2019-02-08T08:36:47.026Z,100.00
2019-02-08T08:39:53.855Z,100.00
2019-02-08T08:42:45.235Z,100.00
2019-02-08T08:45:35.053Z,100.00
2019-02-08T08:48:37.334Z,100.00
2019-02-08T08:51:33.056Z,100.00
2019-02-08T08:54:07.365Z,100.00
2019-02-08T08:56:57.247Z,100.00
2019-02-08T09:00:06.895Z,100.00
2019-02-08T09:02:41.522Z,100.00
2019-02-08T09:05:19.327Z,100.00
2019-02-08T09:08:03.228Z,100.00
2019-02-08T09:11:03.513Z,100.00
2019-02-08T09:13:40.914Z,100.00
2019-02-08T09:16:12.589Z,100.00
2019-02-08T09:18:50.175Z,100.00
2019-02-08T09:21:30.831Z,100.00
2019-02-08T09:24:37.322Z,100.00
2019-02-08T09:27:15.050Z,100.00
2019-02-08T09:30:05.979Z,100.00
2019-02-08T09:32:49.719Z,100.00
2019-02-08T09:35:27.208Z,100.00
2019-02-08T09:38:15.256Z,100.00
2019-02-08T09:40:56.022Z,100.00
2019-02-08T09:44:02.392Z,100.00
2019-02-08T09:46:40.191Z,100.00
2019-02-08T09:49:28.331Z,100.00
2019-02-08T09:52:14.943Z,100.00
2019-02-08T09:55:12.409Z,100.00
2019-02-08T09:58:11.607Z,100.00
2019-02-08T10:01:11.836Z,100.00
2019-02-08T10:03:49.428Z,100.00
2019-02-08T10:06:23.909Z,100.00
2019-02-08T10:09:28.803Z,100.00
2019-02-08T10:12:34.132Z,100.00
2019-02-08T10:15:20.946Z,97.24
2019-02-08T10:18:07.770Z,94.09
2019-02-08T10:20:43.866Z,92.92
2019-02-08T10:23:36.459Z,89.46
2019-02-08T10:26:23.197Z,89.35
2019-02-08T10:29:20.767Z,86.62
2019-02-08T10:32:14.708Z,83.58
2019-02-08T10:35:04.491Z,88.76
2019-02-08T10:37:55.715Z,94.11
2019-02-08T10:40:33.403Z,97.42
2019-02-08T10:43:27.484Z,88.85
2019-02-08T10:46:15.627Z,91.19
2019-02-08T10:49:02.437Z,93.21
2019-02-08T10:51:56.739Z,87.47
2019-02-08T10:54:37.393Z,92.09
2019-02-08T10:57:18.063Z,89.22
2019-02-08T11:00:08.359Z,87.61
2019-02-08T11:03:12.237Z,87.50
2019-02-08T11:05:56.111Z,85.59
2019-02-08T11:08:50.495Z,86.76
2019-02-08T11:11:34.184Z,86.00
2019-02-08T11:14:26.781Z,83.87
2019-02-08T11:17:04.070Z,80.66
2019-02-08T11:19:31.650Z,79.77
2019-02-08T11:22:01.340Z,83.27
2019-02-08T11:24:30.051Z,81.90
2019-02-08T11:26:59.267Z,84.57
2019-02-08T11:29:28.806Z,85.13
2019-02-08T11:31:57.482Z,83.53
2019-02-08T11:34:26.149Z,82.12
2019-02-08T11:36:56.326Z,82.86
2019-02-08T11:39:26.535Z,83.31
2019-02-08T11:41:55.241Z,84.87
2019-02-08T11:44:23.933Z,81.40
2019-02-08T11:46:52.818Z,78.65
2019-02-08T11:49:21.610Z,81.83
2019-02-08T11:51:50.302Z,80.05
2019-02-08T11:54:21.045Z,81.56
2019-02-08T11:56:49.412Z,82.87
2019-02-08T11:59:18.188Z,79.44
2019-02-08T12:01:46.965Z,76.50
2019-02-08T12:04:16.797Z,78.69
2019-02-08T12:06:45.488Z,82.27
2019-02-08T12:09:14.781Z,82.88
2019-02-08T12:11:44.331Z,82.00
2019-02-08T12:14:13.203Z,81.55
2019-02-08T12:16:42.048Z,79.61
2019-02-08T12:19:10.802Z,78.57
2019-02-08T12:21:39.609Z,79.48
2019-02-08T12:24:09.306Z,80.07
2019-02-08T12:26:47.066Z,80.24
2019-02-08T12:29:17.244Z,79.27
2019-02-08T12:31:45.973Z,77.55
2019-02-08T12:34:14.648Z,77.15
2019-02-08T12:36:43.448Z,80.17
2019-02-08T12:39:12.130Z,76.99
2019-02-08T12:41:41.197Z,77.37
2019-02-08T12:44:11.235Z,77.42
2019-02-08T12:46:40.235Z,78.11
2019-02-08T12:49:09.015Z,76.73
2019-02-08T12:51:37.704Z,77.36
2019-02-08T12:54:06.493Z,76.24
2019-02-08T12:56:35.148Z,74.79
2019-02-08T12:59:04.380Z,74.10
2019-02-08T13:01:37.814Z,74.36
2019-02-08T13:04:03.796Z,77.34
2019-02-08T13:06:32.498Z,77.40
2019-02-08T13:09:01.277Z,73.10
2019-02-08T13:11:31.718Z,74.08
2019-02-08T13:14:00.387Z,75.42
2019-02-08T13:16:32.030Z,76.34
2019-02-08T13:19:01.657Z,78.42
2019-02-08T13:21:30.488Z,76.00
2019-02-08T13:23:59.123Z,76.43
2019-02-08T13:26:29.241Z,76.44
2019-02-08T13:28:59.469Z,76.47
2019-02-08T13:31:28.154Z,76.93
2019-02-08T13:33:56.836Z,75.65
2019-02-08T13:36:25.526Z,76.05
2019-02-08T13:38:54.310Z,76.33
2019-02-08T13:41:24.661Z,74.79
2019-02-08T13:43:53.540Z,72.58
2019-02-08T13:46:23.885Z,70.34
2019-02-08T13:48:54.300Z,74.15
2019-02-08T13:51:23.073Z,73.61
2019-02-08T13:53:51.988Z,71.25
2019-02-08T13:56:21.007Z,68.21
2019-02-08T13:58:49.690Z,69.13
2019-02-08T14:01:18.290Z,67.89
2019-02-08T14:03:47.029Z,70.41
2019-02-08T14:06:15.629Z,71.99
2019-02-08T14:08:44.321Z,72.02
2019-02-08T14:11:12.991Z,67.87
2019-02-08T14:13:41.615Z,69.93
2019-02-08T14:16:10.222Z,71.61
2019-02-08T14:18:39.091Z,75.66
2019-02-08T14:21:07.854Z,79.17
2019-02-08T14:23:36.520Z,80.73
2019-02-08T14:26:05.487Z,79.28
2019-02-08T14:28:34.160Z,83.53
2019-02-08T14:31:02.853Z,87.26
2019-02-08T14:33:31.499Z,85.75
2019-02-08T14:36:00.298Z,87.48
2019-02-08T14:38:29.053Z,87.26
2019-02-08T14:40:57.673Z,86.13
2019-02-08T14:43:27.842Z,86.29
2019-02-08T14:45:56.562Z,86.16
2019-02-08T14:48:25.629Z,89.15
2019-02-08T14:50:54.234Z,95.22
2019-02-08T14:53:22.926Z,100.00
2019-02-08T14:55:51.615Z,100.00
2019-02-08T14:58:21.407Z,100.00
2019-02-08T15:00:50.035Z,100.00
2019-02-08T15:03:18.735Z,100.00
2019-02-08T15:05:47.405Z,100.00
2019-02-08T15:08:16.066Z,100.00
2019-02-08T15:10:50.408Z,100.00
2019-02-08T15:13:19.076Z,100.00
2019-02-08T15:15:47.760Z,100.00
2019-02-08T15:18:16.372Z,100.00
2019-02-08T15:20:45.056Z,100.00
2019-02-08T15:23:13.693Z,100.00
2019-02-08T15:25:42.397Z,100.00
2019-02-08T15:28:11.113Z,100.00
2019-02-08T15:30:39.877Z,100.00
2019-02-08T15:33:08.578Z,100.00
2019-02-08T15:35:37.288Z,100.00
2019-02-08T15:38:08.382Z,100.00
2019-02-08T15:40:45.253Z,100.00
2019-02-08T15:43:16.035Z,100.00
2019-02-08T15:45:48.102Z,100.00
2019-02-08T15:48:16.892Z,100.00
2019-02-08T15:50:45.594Z,100.00
2019-02-08T15:53:14.215Z,100.00
2019-02-08T15:55:48.878Z,100.00
2019-02-08T15:58:17.624Z,100.00
2019-02-08T16:00:46.436Z,100.00
2019-02-08T16:03:15.221Z,100.00
2019-02-08T16:05:43.831Z,100.00
2019-02-08T16:08:15.117Z,100.00
2019-02-08T16:10:43.820Z,100.00
2019-02-08T16:13:12.620Z,100.00
2019-02-08T16:15:41.592Z,100.00
2019-02-08T16:18:10.845Z,100.00
2019-02-08T16:20:39.527Z,100.00
2019-02-08T16:23:08.182Z,100.00
2019-02-08T16:25:37.556Z,100.00
2019-02-08T16:28:06.492Z,100.00
2019-02-08T16:30:36.877Z,100.00
2019-02-08T16:33:07.794Z,100.00
2019-02-08T16:35:36.916Z,100.00
2019-02-08T16:38:06.767Z,100.00
2019-02-08T16:40:35.835Z,100.00
2019-02-08T16:43:05.032Z,100.00
2019-02-08T16:45:38.314Z,100.00
2019-02-08T16:48:12.223Z,100.00
2019-02-08T16:50:43.172Z,100.00
2019-02-08T16:53:12.712Z,100.00
2019-02-08T16:55:43.309Z,100.00
2019-02-08T16:58:15.267Z,100.00
2019-02-08T17:00:44.128Z,100.00
2019-02-08T17:03:14.308Z,100.00
2019-02-08T17:05:43.616Z,100.00
2019-02-08T17:08:12.633Z,100.00
2019-02-08T17:10:41.355Z,100.00
2019-02-08T17:13:10.450Z,100.00
2019-02-08T17:15:39.505Z,100.00
2019-02-08T17:18:08.796Z,100.00
2019-02-08T17:20:43.022Z,100.00
2019-02-08T17:23:11.754Z,100.00
2019-02-08T17:25:40.401Z,100.00
2019-02-08T17:28:12.444Z,100.00
2019-02-08T17:30:42.550Z,100.00
2019-02-08T17:33:11.425Z,100.00
2019-02-08T17:35:41.728Z,100.00
2019-02-08T17:38:10.505Z,100.00
2019-02-08T17:40:42.063Z,100.00
2019-02-08T17:43:10.814Z,100.00
2019-02-08T17:45:39.536Z,100.00
2019-02-08T17:48:12.169Z,100.00
2019-02-08T17:50:43.390Z,100.00
2019-02-08T17:53:12.048Z,100.00
2019-02-08T17:55:40.743Z,100.00
2019-02-08T17:58:09.521Z,100.00
2019-02-08T18:00:48.393Z,100.00
2019-02-08T18:03:17.123Z,100.00
2019-02-08T18:05:45.813Z,100.00
2019-02-08T18:08:14.794Z,100.00
2019-02-08T18:10:43.776Z,100.00
2019-02-08T18:13:12.562Z,100.00
2019-02-08T18:15:41.211Z,100.00
2019-02-08T18:18:12.429Z,100.00
2019-02-08T18:20:52.653Z,100.00
2019-02-08T18:23:21.520Z,100.00
2019-02-08T18:25:50.462Z,100.00
2019-02-08T18:28:19.114Z,100.00
2019-02-08T18:30:47.946Z,100.00
2019-02-08T18:33:16.666Z,100.00
2019-02-08T18:35:45.395Z,100.00
2019-02-08T18:38:14.035Z,100.00
2019-02-08T18:40:45.878Z,100.00
2019-02-08T18:43:14.748Z,100.00
2019-02-08T18:45:43.850Z,100.00
2019-02-08T18:48:12.527Z,100.00
2019-02-08T18:50:47.875Z,100.00
2019-02-08T18:53:17.819Z,100.00
2019-02-08T18:55:52.748Z,100.00
2019-02-08T18:58:24.000Z,100.00
2019-02-08T19:00:55.534Z,100.00
2019-02-08T19:03:25.417Z,100.00
2019-02-08T19:05:56.549Z,100.00
2019-02-08T19:08:24.947Z,100.00
2019-02-08T19:10:54.220Z,100.00
2019-02-08T19:13:30.936Z,100.00
2019-02-08T19:15:59.745Z,100.00
2019-02-08T19:18:28.820Z,100.00
2019-02-08T19:20:57.827Z,100.00
2019-02-08T19:23:26.664Z,100.00
2019-02-08T19:25:55.428Z,100.00
2019-02-08T19:28:27.268Z,100.00
2019-02-08T19:30:55.888Z,100.00
2019-02-08T19:33:24.682Z,100.00
2019-02-08T19:35:53.523Z,100.00
2019-02-08T19:38:24.012Z,100.00
2019-02-08T19:40:55.464Z,100.00
2019-02-08T19:43:24.325Z,100.00
2019-02-08T19:45:54.167Z,100.00
2019-02-08T19:48:24.947Z,100.00
2019-02-08T19:50:54.920Z,100.00
2019-02-08T19:53:26.283Z,100.00
2019-02-08T19:55:56.199Z,100.00
2019-02-08T19:58:25.054Z,100.00
2019-02-08T20:00:54.156Z,100.00
2019-02-08T20:03:23.007Z,100.00
2019-02-08T20:05:54.019Z,100.00
2019-02-08T20:08:26.056Z,100.00
2019-02-08T20:10:55.353Z,100.00
2019-02-08T20:13:24.457Z,100.00
2019-02-08T20:15:53.747Z,100.00
2019-02-08T20:18:23.636Z,100.00
2019-02-08T20:20:55.088Z,100.00
2019-02-08T20:23:24.381Z,100.00
2019-02-08T20:25:53.875Z,100.00
2019-02-08T20:28:25.098Z,100.00
2019-02-08T20:30:55.444Z,100.00
2019-02-08T20:33:25.385Z,100.00
2019-02-08T20:35:54.744Z,100.00
2019-02-08T20:38:25.341Z,100.00
2019-02-08T20:40:55.756Z,100.00
2019-02-08T20:43:27.911Z,100.00
2019-02-08T20:45:58.251Z,100.00
2019-02-08T20:48:28.720Z,100.00
2019-02-08T20:50:57.654Z,100.00
2019-02-08T20:53:26.862Z,100.00
2019-02-08T20:55:59.239Z,100.00
2019-02-08T20:58:28.333Z,100.00
2019-02-08T21:00:58.661Z,100.00
2019-02-08T21:03:27.458Z,100.00
2019-02-08T21:05:56.861Z,100.00
2019-02-08T21:08:25.934Z,100.00
2019-02-08T21:10:54.839Z,100.00
2019-02-08T21:13:27.537Z,100.00
2019-02-08T21:15:55.997Z,100.00
2019-02-08T21:18:27.514Z,100.00
2019-02-08T21:20:57.259Z,100.00
2019-02-08T21:23:26.054Z,100.00
2019-02-08T21:25:56.678Z,100.00
2019-02-08T21:28:25.662Z,100.00
2019-02-08T21:30:56.095Z,100.00
2019-02-08T21:33:24.887Z,100.00
2019-02-08T21:35:54.485Z,100.00
2019-02-08T21:38:23.673Z,100.00
2019-02-08T21:40:52.482Z,100.00
2019-02-08T21:43:21.366Z,100.00
2019-02-08T21:45:50.373Z,100.00
2019-02-08T21:48:20.775Z,100.00
2019-02-08T21:50:49.507Z,100.00
2019-02-08T21:53:18.266Z,100.00
2019-02-08T21:55:48.772Z,100.00
2019-02-08T21:58:17.690Z,100.00
2019-02-08T22:00:48.732Z,100.00
2019-02-08T22:03:17.928Z,100.00
2019-02-08T22:05:54.309Z,100.00
2019-02-08T22:08:23.113Z,100.00
2019-02-08T22:10:52.135Z,100.00
2019-02-08T22:13:21.775Z,100.00
2019-02-08T22:15:51.357Z,100.00
2019-02-08T22:18:20.580Z,100.00
2019-02-08T22:20:50.903Z,100.00
2019-02-08T22:23:20.121Z,100.00
2019-02-08T22:25:49.294Z,100.00
2019-02-08T22:28:19.119Z,100.00
2019-02-08T22:30:50.277Z,100.00
2019-02-08T22:33:19.059Z,100.00
2019-02-08T22:35:49.596Z,100.00
2019-02-08T22:38:18.279Z,100.00
2019-02-08T22:40:47.060Z,100.00
2019-02-08T22:43:15.845Z,100.00
2019-02-08T22:45:44.549Z,100.00
2019-02-08T22:48:13.431Z,100.00
2019-02-08T22:50:42.350Z,100.00
2019-02-08T22:53:11.130Z,100.00
2019-02-08T22:55:40.116Z,100.00
2019-02-08T22:58:10.038Z,100.00
2019-02-08T23:00:50.884Z,100.00
2019-02-08T23:03:20.404Z,100.00
2019-02-08T23:05:49.398Z,100.00
2019-02-08T23:08:18.181Z,100.00
2019-02-08T23:10:47.065Z,100.00
2019-02-08T23:13:15.755Z,100.00
2019-02-08T23:15:44.744Z,100.00
2019-02-08T23:18:13.443Z,100.00
2019-02-08T23:20:42.225Z,100.00
2019-02-08T23:23:10.951Z,100.00
2019-02-08T23:25:39.700Z,100.00
2019-02-08T23:28:08.381Z,100.00
2019-02-08T23:30:37.373Z,100.00
2019-02-08T23:33:06.270Z,100.00
2019-02-08T23:35:42.536Z,100.00
2019-02-08T23:38:05.496Z,100.00
2019-02-08T23:40:34.273Z,100.00
2019-02-08T23:43:03.269Z,100.00
2019-02-08T23:45:31.951Z,100.00
2019-02-08T23:48:00.633Z,100.00
2019-02-08T23:50:29.424Z,100.00
2019-02-08T23:52:58.141Z,100.00
2019-02-08T23:55:27.618Z,100.00
2019-02-08T23:57:56.404Z,100.00
